Time;durP1;ratioP1;P1;durP2;ratioP2;P2;SDS_P1;SDS_P2;PMS_P1;PMS_P2;Temp;Humidity;BMP_temperature;BMP_pressure;BME280_temperature;BME280_humidity;BME280_pressure;Samples;Min_cycle;Max_cycle;Signal;HPM_P1;HPM_P2
2021/06/25 00:00:47;;;;;;;;;;;;;;;-142.75;68.95;77844.09;5049513;28;19942;-74
2021/06/25 00:03:12;;;;;;;;;;;;;;;-142.75;69.07;77846.06;5049775;28;19916;-77
2021/06/25 00:05:37;;;;;;;;;;;;;;;-142.75;69.54;77842.13;5054709;28;19925;-76
2021/06/25 00:08:03;;;;;;;;;;;;;;;-142.75;70.40;77838.19;5049523;28;19920;-76
2021/06/25 00:10:28;;;;;;;;;;;;;;;-142.75;70.40;77818.50;5036894;28;19978;-75
2021/06/25 00:12:53;;;;;;;;;;;;;;;-142.75;70.08;77808.66;5050466;28;19921;-75
2021/06/25 00:15:19;;;;;;;;;;;;;;;-142.75;70.36;77824.41;5052846;28;19917;-77
2021/06/25 00:17:44;;;;;;;;;;;;;;;-142.75;70.39;77810.63;5048435;28;19916;-76
2021/06/25 00:20:11;;;;;;;;;;;;;;;-142.75;70.11;77808.66;5042360;28;19924;-75
2021/06/25 00:22:37;;;;;;;;;;;;;;;-142.75;69.68;77800.78;5049583;28;19920;-75
2021/06/25 00:25:02;;;;;;;;;;;;;;;-142.75;69.54;77794.88;5053702;28;20018;-76
2021/06/25 00:27:27;;;;;;;;;;;;;;;-142.75;69.28;77796.84;5049721;28;20370;-74
2021/06/25 00:29:53;;;;;;;;;;;;;;;-142.75;69.35;77796.84;5049409;28;19921;-75
2021/06/25 00:32:18;;;;;;;;;;;;;;;-142.75;69.85;77798.81;5041042;28;19931;-76
2021/06/25 00:34:43;;;;;;;;;;;;;;;-142.75;69.95;77800.78;5037162;28;19920;-75
2021/06/25 00:37:09;;;;;;;;;;;;;;;-142.75;70.22;77785.03;5049601;28;19970;-77
2021/06/25 00:39:34;;;;;;;;;;;;;;;-142.75;70.37;77765.34;5049398;28;19975;-74
2021/06/25 00:41:59;;;;;;;;;;;;;;;-142.75;70.33;77763.38;5054333;28;21356;-75
2021/06/25 00:44:24;;;;;;;;;;;;;;;-142.75;70.27;77745.66;5049777;28;19916;-75
2021/06/25 00:46:50;;;;;;;;;;;;;;;-142.75;70.37;77733.84;5049359;28;19924;-76
2021/06/25 00:49:15;;;;;;;;;;;;;;;-142.75;70.30;77725.97;5049386;28;19917;-75
2021/06/25 00:51:41;;;;;;;;;;;;;;;-142.75;69.98;77735.81;5044006;28;19947;-77
2021/06/25 00:54:06;;;;;;;;;;;;;;;-142.75;70.07;77751.56;5046227;28;20440;-77
2021/06/25 00:56:32;;;;;;;;;;;;;;;-142.75;70.07;77749.59;5053002;28;19916;-75
2021/06/25 00:58:57;;;;;;;;;;;;;;;-142.75;70.65;77743.69;5052821;28;19924;-76
2021/06/25 01:01:22;;;;;;;;;;;;;;;-142.75;70.97;77743.69;5039215;28;19933;-75
2021/06/25 01:03:47;;;;;;;;;;;;;;;-142.75;70.56;77739.75;5041692;28;19916;-76
2021/06/25 01:06:12;;;;;;;;;;;;;;;-142.75;70.55;77745.66;5060239;28;19917;-76
2021/06/25 01:08:38;;;;;;;;;;;;;;;-142.75;70.67;77731.88;5052583;28;19920;-75
2021/06/25 01:11:03;;;;;;;;;;;;;;;-142.75;70.85;77727.94;5052459;28;19925;-76
2021/06/25 01:13:28;;;;;;;;;;;;;;;-142.75;71.49;77720.03;5053206;28;20473;-76
2021/06/25 01:15:53;;;;;;;;;;;;;;;-142.75;71.48;77720.03;5044743;28;19999;-76
2021/06/25 01:18:19;;;;;;;;;;;;;;;-142.75;70.86;77712.16;5052405;28;20439;-76
2021/06/25 01:20:44;;;;;;;;;;;;;;;-142.75;71.53;77704.28;5051932;28;19932;-77
2021/06/25 01:23:09;;;;;;;;;;;;;;;-142.75;71.53;77704.28;5048080;28;19917;-74
2021/06/25 01:25:36;;;;;;;;;;;;;;;-142.75;71.42;77698.38;5052247;28;19916;-74
2021/06/25 01:28:03;;;;;;;;;;;;;;;-142.75;71.44;77688.53;5052176;28;19917;-76
2021/06/25 01:30:29;;;;;;;;;;;;;;;-142.75;71.17;77690.50;5051831;28;19917;-73
2021/06/25 01:32:55;;;;;;;;;;;;;;;-142.75;71.59;77714.13;5052133;28;20305;-77
2021/06/25 01:35:21;;;;;;;;;;;;;;;-142.75;71.47;77716.09;5047593;28;19917;-75
2021/06/25 01:37:47;;;;;;;;;;;;;;;-142.75;71.71;77733.84;5052011;28;19916;-74
2021/06/25 01:40:13;;;;;;;;;;;;;;;-142.75;72.11;77737.78;5051735;28;19917;-75
2021/06/25 01:42:40;;;;;;;;;;;;;;;-142.75;71.97;77745.66;5052221;28;19974;-76
2021/06/25 01:45:06;;;;;;;;;;;;;;;-142.75;72.28;77733.84;5052068;28;20274;-76
2021/06/25 01:47:34;;;;;;;;;;;;;;;-142.75;72.41;77727.94;5052048;28;19917;-76
2021/06/25 01:50:01;;;;;;;;;;;;;;;-142.75;72.26;77712.16;5051836;28;19920;-74
2021/06/25 01:52:26;;;;;;;;;;;;;;;-142.75;72.20;77704.28;5067413;28;19951;-75
2021/06/25 01:54:51;;;;;;;;;;;;;;;-142.75;72.14;77688.53;5062488;28;19960;-72
2021/06/25 01:57:16;;;;;;;;;;;;;;;-142.75;71.72;77684.59;5052044;28;20304;-75
2021/06/25 01:59:42;;;;;;;;;;;;;;;-142.75;72.07;77676.72;5041609;28;20408;-74
2021/06/25 02:02:07;;;;;;;;;;;;;;;-142.75;72.11;77672.78;5044366;28;19921;-75
2021/06/25 02:04:32;;;;;;;;;;;;;;;-142.75;72.08;77664.91;5050999;28;20378;-75
2021/06/25 02:06:58;;;;;;;;;;;;;;;-142.75;71.89;77649.16;5043362;28;19969;-76
2021/06/25 02:09:23;;;;;;;;;;;;;;;-142.75;71.64;77641.28;5051125;28;20019;-75
2021/06/25 02:11:48;;;;;;;;;;;;;;;-142.75;71.75;77633.41;5049858;28;19924;-75
2021/06/25 02:14:13;;;;;;;;;;;;;;;-142.75;71.73;77617.66;5042690;28;19952;-74
2021/06/25 02:16:38;;;;;;;;;;;;;;;-142.75;71.14;77613.72;5066752;28;20011;-74
2021/06/25 02:19:04;;;;;;;;;;;;;;;-142.75;71.27;77613.72;5051153;28;19924;-76
2021/06/25 02:21:29;;;;;;;;;;;;;;;-142.75;71.53;77607.81;5051077;28;19920;-76
2021/06/25 02:23:54;;;;;;;;;;;;;;;-142.75;72.12;77605.84;5050222;28;19916;-77
2021/06/25 02:26:20;;;;;;;;;;;;;;;-142.75;71.93;77603.88;5051131;28;19925;-74
2021/06/25 02:28:45;;;;;;;;;;;;;;;-142.75;71.85;77596.00;5058108;28;19970;-75
2021/06/25 02:31:10;;;;;;;;;;;;;;;-142.75;72.94;77592.06;5050880;28;19917;-75
2021/06/25 02:33:35;;;;;;;;;;;;;;;-142.75;72.29;77594.03;5051103;28;19916;-75
2021/06/25 02:36:00;;;;;;;;;;;;;;;-142.75;71.99;77580.25;5033624;28;19916;-74
2021/06/25 02:38:26;;;;;;;;;;;;;;;-142.75;71.53;77574.34;5043549;28;20378;-74
2021/06/25 02:40:51;;;;;;;;;;;;;;;-142.75;71.47;77566.47;5047721;28;19917;-74
2021/06/25 02:43:16;;;;;;;;;;;;;;;-142.75;71.96;77550.72;5051800;28;19916;-76
2021/06/25 02:45:41;;;;;;;;;;;;;;;-142.75;71.17;77540.88;5056981;28;19923;-76
2021/06/25 02:48:07;;;;;;;;;;;;;;;-142.75;70.98;77538.91;5050467;28;19916;-74
2021/06/25 02:50:32;;;;;;;;;;;;;;;-142.75;71.28;77534.97;5050404;28;19962;-75
2021/06/25 02:52:57;;;;;;;;;;;;;;;-142.75;71.60;77533.00;5049155;28;19986;-76
2021/06/25 02:55:23;;;;;;;;;;;;;;;-142.75;71.50;77529.06;5050538;28;20007;-76
2021/06/25 02:57:48;;;;;;;;;;;;;;;-142.75;71.25;77519.22;5050408;28;19917;-73
2021/06/25 03:00:15;;;;;;;;;;;;;;;-142.75;70.52;77511.34;5050265;28;19921;-75
2021/06/25 03:02:42;;;;;;;;;;;;;;;-142.75;69.90;77503.47;5050414;28;20015;-75
2021/06/25 03:05:08;;;;;;;;;;;;;;;-142.75;69.51;77489.69;5039620;28;19916;-75
2021/06/25 03:07:33;;;;;;;;;;;;;;;-142.75;68.64;77481.81;5050443;28;19924;-76
2021/06/25 03:09:58;;;;;;;;;;;;;;;-142.75;68.61;77479.84;5050057;28;19921;-75
2021/06/25 03:12:24;;;;;;;;;;;;;;;-142.75;68.22;77468.03;5050471;28;20283;-76
2021/06/25 03:14:49;;;;;;;;;;;;;;;-142.75;67.35;77452.25;5049881;28;19924;-74
2021/06/25 03:17:14;;;;;;;;;;;;;;;-142.75;67.69;77452.25;5050241;28;20007;-76
2021/06/25 03:19:40;;;;;;;;;;;;;;;-142.75;67.69;77442.41;5055266;28;20007;-74
2021/06/25 03:22:05;;;;;;;;;;;;;;;-142.75;67.39;77440.44;5053737;28;19939;-76
2021/06/25 03:24:30;;;;;;;;;;;;;;;-142.75;67.44;77444.38;5048925;28;19917;-75
2021/06/25 03:26:55;;;;;;;;;;;;;;;-142.75;67.50;77436.50;5050064;28;19941;-75
2021/06/25 03:29:21;;;;;;;;;;;;;;;-142.75;67.19;77424.69;5065430;28;19982;-75
2021/06/25 03:31:46;;;;;;;;;;;;;;;-142.75;66.79;77420.75;5049788;28;19960;-76
2021/06/25 03:34:11;;;;;;;;;;;;;;;-142.75;67.37;77416.81;5049467;28;19917;-77
2021/06/25 03:36:36;;;;;;;;;;;;;;;-142.75;67.47;77410.91;5050072;28;19970;-75
2021/06/25 03:39:03;;;;;;;;;;;;;;;-142.75;67.21;77406.97;5049855;28;19916;-76
2021/06/25 03:41:28;;;;;;;;;;;;;;;-142.75;67.21;77414.84;5049782;28;19928;-74
2021/06/25 03:43:53;;;;;;;;;;;;;;;-142.75;66.85;77408.94;5032690;28;19927;-76
2021/06/25 03:46:20;;;;;;;;;;;;;;;-142.75;65.48;77405.00;5049964;28;19921;-75
2021/06/25 03:48:45;;;;;;;;;;;;;;;-142.75;65.93;77406.97;5063738;28;19917;-74
2021/06/25 03:51:10;;;;;;;;;;;;;;;-142.75;66.07;77401.06;5049333;28;19952;-76
2021/06/25 03:53:36;;;;;;;;;;;;;;;-142.75;65.53;77405.00;5058062;28;19917;-75
2021/06/25 03:56:13;;;;;;;;;;;;;;;-142.75;65.50;77401.06;5049768;28;19923;-75
2021/06/25 03:58:39;;;;;;;;;;;;;;;-142.75;64.88;77405.00;5046202;28;19925;-74
2021/06/25 04:01:04;;;;;;;;;;;;;;;-142.75;64.84;77395.16;5048089;28;19921;-76
2021/06/25 04:03:29;;;;;;;;;;;;;;;-142.75;64.87;77399.09;5034927;28;19916;-75
2021/06/25 04:05:54;;;;;;;;;;;;;;;-142.75;64.97;77397.13;5049746;28;19938;-75
2021/06/25 04:10:47;;;;;;;;;;;;;;;-142.75;64.05;77391.22;5058453;28;19932;-74
2021/06/25 04:13:12;;;;;;;;;;;;;;;-142.75;63.84;77377.44;5066409;28;20301;-75
2021/06/25 04:15:38;;;;;;;;;;;;;;;-142.75;64.20;77373.50;5056893;28;19917;-73
2021/06/25 04:18:03;;;;;;;;;;;;;;;-142.75;63.73;77353.81;5049787;28;20038;-74
2021/06/25 04:20:28;;;;;;;;;;;;;;;-142.75;63.26;77349.88;5038480;28;20289;-74
2021/06/25 04:22:54;;;;;;;;;;;;;;;-142.75;61.92;77342.00;5061088;28;19921;-74
2021/06/25 04:25:19;;;;;;;;;;;;;;;-142.75;62.77;77338.06;5063621;28;19951;-73
2021/06/25 04:27:44;;;;;;;;;;;;;;;-142.75;61.89;77332.16;5052507;28;19916;-73
2021/06/25 04:30:12;;;;;;;;;;;;;;;-142.75;61.66;77318.38;5061915;28;19918;-74
2021/06/25 04:32:37;;;;;;;;;;;;;;;-142.75;62.37;77322.31;5069303;28;19924;-75
2021/06/25 04:35:02;;;;;;;;;;;;;;;-142.75;62.45;77326.25;5064639;28;19916;-73
2021/06/25 04:37:27;;;;;;;;;;;;;;;-142.75;62.71;77316.41;5052135;28;20433;-75
2021/06/25 04:39:53;;;;;;;;;;;;;;;-142.75;62.44;77316.41;5055791;28;19924;-73
2021/06/25 04:42:18;;;;;;;;;;;;;;;-142.75;62.91;77308.53;5054668;28;20029;-74
2021/06/25 04:44:43;;;;;;;;;;;;;;;-142.75;63.63;77306.56;5052345;28;20397;-74
2021/06/25 04:47:08;;;;;;;;;;;;;;;-142.75;64.03;77308.53;5053242;28;19923;-74
2021/06/25 04:49:34;;;;;;;;;;;;;;;-142.75;63.64;77306.56;5035004;28;19917;-73
2021/06/25 04:52:00;;;;;;;;;;;;;;;-142.75;63.41;77298.69;5052730;28;20336;-75
2021/06/25 04:54:25;;;;;;;;;;;;;;;-142.75;63.48;77294.75;5042927;28;20348;-73
2021/06/25 04:56:50;;;;;;;;;;;;;;;-142.75;64.12;77292.78;5054878;28;19978;-74
2021/06/25 04:59:15;;;;;;;;;;;;;;;-142.75;63.95;77288.84;5062120;28;19952;-74
2021/06/25 05:01:40;;;;;;;;;;;;;;;-142.75;64.41;77277.03;5072093;28;20397;-75
2021/06/25 05:04:06;;;;;;;;;;;;;;;-142.75;64.10;77275.06;5057116;28;19917;-74
2021/06/25 05:06:31;;;;;;;;;;;;;;;-142.75;64.74;77263.25;5055675;28;19923;-75
2021/06/25 05:08:56;;;;;;;;;;;;;;;-142.75;64.86;77255.38;5063350;28;20015;-75
2021/06/25 05:11:21;;;;;;;;;;;;;;;-142.75;65.28;77247.50;5052820;28;19978;-74
2021/06/25 05:13:46;;;;;;;;;;;;;;;-142.75;65.67;77243.56;5054775;28;19917;-75
2021/06/25 05:16:11;;;;;;;;;;;;;;;-142.75;65.93;77233.72;5067019;28;19927;-74
2021/06/25 05:18:37;;;;;;;;;;;;;;;-142.75;65.65;77223.88;5068963;28;19947;-74
2021/06/25 05:21:02;;;;;;;;;;;;;;;-142.75;65.55;77204.19;5063795;28;19925;-74
2021/06/25 05:23:27;;;;;;;;;;;;;;;-142.75;65.22;77200.25;5066381;28;19947;-74
2021/06/25 05:25:54;;;;;;;;;;;;;;;-142.75;65.50;77188.44;5052431;28;19921;-75
2021/06/25 05:28:20;;;;;;;;;;;;;;;-142.75;65.64;77172.69;5059389;28;19924;-74
2021/06/25 05:30:45;;;;;;;;;;;;;;;-142.75;65.83;77154.97;5067613;28;20480;-77
2021/06/25 05:33:10;;;;;;;;;;;;;;;-142.75;65.38;77145.13;5064125;28;19920;-75
2021/06/25 05:35:37;;;;;;;;;;;;;;;-142.75;65.27;77131.34;5042674;28;19966;-73
2021/06/25 05:38:08;;;;;;;;;;;;;;;-142.75;65.01;77129.38;5033409;28;20416;-74
2021/06/25 05:40:33;;;;;;;;;;;;;;;-142.75;65.51;77119.53;5067452;28;19947;-75
2021/06/25 05:42:59;;;;;;;;;;;;;;;-142.75;65.83;77113.63;5066754;28;19924;-74
2021/06/25 05:45:24;;;;;;;;;;;;;;;-142.75;65.34;77107.72;5037507;28;20412;-73
2021/06/25 05:47:50;;;;;;;;;;;;;;;-142.75;64.83;77097.88;5051250;28;19920;-74
2021/06/25 05:50:16;;;;;;;;;;;;;;;-142.75;64.64;77084.09;5070248;28;19921;-73
2021/06/25 05:52:41;;;;;;;;;;;;;;;-142.75;64.72;77078.19;5069847;28;19916;-73
2021/06/25 05:55:07;;;;;;;;;;;;;;;-142.75;64.29;77070.31;5063520;28;20008;-73
2021/06/25 05:57:32;;;;;;;;;;;;;;;-142.75;64.66;77066.38;5033256;28;19927;-74
2021/06/25 05:59:57;;;;;;;;;;;;;;;-142.75;64.46;77066.38;5070326;28;19924;-73
2021/06/25 06:02:22;;;;;;;;;;;;;;;-142.75;64.60;77062.44;5060804;28;19921;-73
2021/06/25 06:04:47;;;;;;;;;;;;;;;-142.75;64.85;77066.38;5067615;28;19970;-72
2021/06/25 06:07:13;;;;;;;;;;;;;;;-142.75;65.24;77064.41;5070932;28;19923;-73
2021/06/25 06:09:38;;;;;;;;;;;;;;;-142.75;65.18;77076.22;5053153;28;20005;-74
2021/06/25 06:12:04;;;;;;;;;;;;;;;-142.75;65.59;77086.06;5050666;28;19932;-74
2021/06/25 06:14:29;;;;;;;;;;;;;;;-142.75;66.23;77080.16;5050294;28;19917;-75
2021/06/25 06:16:54;;;;;;;;;;;;;;;-142.75;65.89;77076.22;5064398;28;20324;-75
2021/06/25 06:19:19;;;;;;;;;;;;;;;-142.75;66.19;77070.31;5057505;28;19931;-74
2021/06/25 06:35:11;;;;;;;;;;;;;;;-142.75;65.54;76948.25;5069789;28;19959;-72
2021/06/25 06:37:37;;;;;;;;;;;;;;;-142.75;63.67;76938.41;5053025;28;19963;-74
2021/06/25 06:40:02;;;;;;;;;;;;;;;-142.75;63.97;76928.56;5070381;28;19926;-75
2021/06/25 06:42:27;;;;;;;;;;;;;;;-142.75;64.18;76932.50;5058094;28;19928;-75
2021/06/25 06:44:52;;;;;;;;;;;;;;;-142.75;63.30;76936.44;5051473;28;19917;-74
2021/06/25 06:47:17;;;;;;;;;;;;;;;-142.75;62.61;76950.22;5067611;28;19939;-74
2021/06/25 06:49:43;;;;;;;;;;;;;;;-142.75;63.07;76952.19;5051144;28;19924;-74
2021/06/25 06:52:08;;;;;;;;;;;;;;;-142.75;63.26;76944.31;5065547;28;20014;-74
2021/06/25 06:54:33;;;;;;;;;;;;;;;-142.75;63.19;76932.50;5066754;28;19917;-75
2021/06/25 06:56:58;;;;;;;;;;;;;;;-142.75;62.13;76924.63;5070409;28;20374;-74
2021/06/25 06:59:23;;;;;;;;;;;;;;;-142.75;62.77;76877.38;5058428;28;19924;-75
2021/06/25 07:01:49;;;;;;;;;;;;;;;-142.75;61.92;76838.00;5059961;28;20410;-75
2021/06/25 07:04:14;;;;;;;;;;;;;;;-142.75;60.45;76794.69;5084368;28;19930;-74
2021/06/25 07:06:39;;;;;;;;;;;;;;;-142.75;60.01;76743.53;5050548;28;19917;-75
2021/06/25 07:09:04;;;;;;;;;;;;;;;-142.75;59.62;76700.22;5058264;28;20399;-74
2021/06/25 07:11:30;;;;;;;;;;;;;;;-142.75;59.13;76672.66;5052131;28;20427;-75
2021/06/25 07:13:55;;;;;;;;;;;;;;;-142.75;57.98;76629.34;5038908;28;19917;-73
2021/06/25 07:16:20;;;;;;;;;;;;;;;-142.75;57.65;76591.94;5045512;28;19939;-76
2021/06/25 07:18:46;;;;;;;;;;;;;;;-142.75;56.14;76564.38;5062232;28;19963;-75
2021/06/25 07:21:11;;;;;;;;;;;;;;;-142.75;56.67;76544.69;5048692;28;19924;-74
2021/06/25 07:23:36;;;;;;;;;;;;;;;-142.75;56.17;76534.84;5068682;28;19932;-75
2021/06/25 07:26:02;;;;;;;;;;;;;;;-142.75;55.10;76527.00;5066197;28;19926;-75
2021/06/25 07:28:27;;;;;;;;;;;;;;;-142.75;55.11;76532.88;5069825;28;19922;-75
2021/06/25 07:30:53;;;;;;;;;;;;;;;-142.75;55.21;76536.84;5069662;28;19930;-74
2021/06/25 07:33:18;;;;;;;;;;;;;;;-142.75;55.70;76546.66;5069888;28;19923;-74
2021/06/25 07:35:43;;;;;;;;;;;;;;;-142.75;55.07;76548.63;5070024;28;19916;-74
2021/06/25 07:38:08;;;;;;;;;;;;;;;-142.75;56.10;76538.78;5059259;28;20035;-75
2021/06/25 07:40:34;;;;;;;;;;;;;;;-142.75;55.83;76534.84;5067564;28;19985;-74
2021/06/25 07:42:59;;;;;;;;;;;;;;;-142.75;55.04;76525.03;5069651;28;19920;-74
2021/06/25 07:45:24;;;;;;;;;;;;;;;-142.75;54.95;76503.38;5064363;28;20290;-75
2021/06/25 07:47:49;;;;;;;;;;;;;;;-142.75;54.04;76521.09;5052700;28;19916;-75
2021/06/25 07:50:16;;;;;;;;;;;;;;;-142.75;55.32;76489.59;5049460;28;19925;-73
2021/06/25 07:52:42;;;;;;;;;;;;;;;-142.75;54.47;76460.06;5049497;28;19917;-74
2021/06/25 07:55:08;;;;;;;;;;;;;;;-142.75;53.50;76369.50;5049774;28;20419;-75
2021/06/25 07:57:33;;;;;;;;;;;;;;;-142.75;53.38;76324.25;5049863;28;20344;-74
2021/06/25 07:59:58;;;;;;;;;;;;;;;-142.75;50.87;76314.41;5059347;28;19927;-74
2021/06/25 08:02:24;;;;;;;;;;;;;;;-142.75;51.04;76341.97;5072829;28;19920;-74
2021/06/25 08:04:49;;;;;;;;;;;;;;;-142.75;50.33;76345.91;5068380;28;19921;-74
2021/06/25 08:07:14;;;;;;;;;;;;;;;-142.75;51.23;76410.84;5053201;28;19960;-73
2021/06/25 08:09:40;;;;;;;;;;;;;;;-142.75;52.81;76436.44;5071571;28;20014;-74
2021/06/25 08:12:06;;;;;;;;;;;;;;;-142.75;53.46;76519.13;5055660;28;19917;-74
2021/06/25 08:14:31;;;;;;;;;;;;;;;-142.75;54.50;76511.25;5062043;28;20033;-75
2021/06/25 08:16:57;;;;;;;;;;;;;;;-142.75;54.63;76505.34;5059575;28;20434;-72
2021/06/25 08:19:22;;;;;;;;;;;;;;;-142.75;54.22;76521.09;5053718;28;19928;-76
2021/06/25 08:21:47;;;;;;;;;;;;;;;-142.75;54.64;76487.63;5066686;28;20297;-76
2021/06/25 08:24:12;;;;;;;;;;;;;;;-142.75;55.07;76467.94;5053921;28;19916;-75
2021/06/25 08:26:37;;;;;;;;;;;;;;;-142.75;54.17;76503.38;5053577;28;20007;-75
2021/06/25 08:29:03;;;;;;;;;;;;;;;-142.75;56.10;76511.25;5068628;28;19951;-75
2021/06/25 08:31:28;;;;;;;;;;;;;;;-142.75;55.26;76493.53;5041240;28;19917;-76
2021/06/25 08:33:53;;;;;;;;;;;;;;;-142.75;55.04;76481.72;5055603;28;19924;-74
2021/06/25 08:36:18;;;;;;;;;;;;;;;-142.75;53.79;76440.38;5071393;28;19916;-75
2021/06/25 08:38:43;;;;;;;;;;;;;;;-142.75;53.90;76408.88;5061756;28;19917;-76
2021/06/25 08:41:09;;;;;;;;;;;;;;;-142.75;53.66;76377.38;5070964;28;19924;-76
2021/06/25 08:43:34;;;;;;;;;;;;;;;-142.75;53.29;76379.34;5074654;28;20535;-75
2021/06/25 08:45:59;;;;;;;;;;;;;;;-142.75;53.31;76369.50;5056630;28;20378;-76
2021/06/25 08:48:28;;;;;;;;;;;;;;;-142.75;53.25;76389.19;5066941;28;19917;-75
2021/06/25 08:50:54;;;;;;;;;;;;;;;-142.75;52.41;76341.97;5066270;28;19924;-77
2021/06/25 08:53:20;;;;;;;;;;;;;;;-142.75;52.43;76263.22;5074455;28;20011;-75
2021/06/25 08:55:45;;;;;;;;;;;;;;;-142.75;50.10;76137.25;5071426;28;20031;-75
2021/06/25 08:58:11;;;;;;;;;;;;;;;-142.75;48.67;76170.72;5059297;28;19916;-75
2021/06/25 09:00:36;;;;;;;;;;;;;;;-142.75;49.30;76172.69;5044934;28;19925;-76
2021/06/25 09:03:01;;;;;;;;;;;;;;;-142.75;50.55;76204.16;5066661;28;19925;-75
2021/06/25 09:05:28;;;;;;;;;;;;;;;-142.75;50.12;76251.41;5066576;28;19920;-74
2021/06/25 09:07:57;;;;;;;;;;;;;;;-142.75;51.12;76233.69;5072688;28;19967;-75
2021/06/25 09:10:33;;;;;;;;;;;;;;;-142.75;51.74;76210.06;5052908;28;19971;-75
2021/06/25 09:13:02;;;;;;;;;;;;;;;-142.75;50.85;76253.38;5066029;28;19923;-76
2021/06/25 09:15:29;;;;;;;;;;;;;;;-142.75;51.92;76277.00;5071165;28;19917;-75
2021/06/25 09:17:58;;;;;;;;;;;;;;;-142.75;51.24;76288.81;5059978;28;19924;-75
2021/06/25 09:20:31;;;;;;;;;;;;;;;-142.75;52.89;76308.50;5055572;28;19924;-75
2021/06/25 09:22:56;;;;;;;;;;;;;;;-142.75;51.93;76300.63;5053743;28;19974;-76
2021/06/25 09:25:22;;;;;;;;;;;;;;;-142.75;52.50;76286.84;5059589;28;20398;-75
2021/06/25 09:27:53;;;;;;;;;;;;;;;-142.75;52.54;76292.75;5069188;28;19916;-75
2021/06/25 09:30:18;;;;;;;;;;;;;;;-142.75;51.24;76306.53;5056515;28;19923;-75
2021/06/25 09:32:43;;;;;;;;;;;;;;;-142.75;52.21;76371.47;5065212;28;19916;-75
2021/06/25 09:35:13;;;;;;;;;;;;;;;-142.75;54.20;76395.09;5073551;28;20011;-75
2021/06/25 09:37:43;;;;;;;;;;;;;;;-142.75;53.15;76401.00;5064620;28;19920;-75
2021/06/25 09:40:09;;;;;;;;;;;;;;;-142.75;53.70;76404.94;5065185;28;19924;-75
2021/06/25 09:42:34;;;;;;;;;;;;;;;-142.75;53.54;76436.44;5062235;28;19929;-74
2021/06/25 09:45:00;;;;;;;;;;;;;;;-142.75;54.46;76467.94;5062375;28;20283;-75
2021/06/25 09:47:26;;;;;;;;;;;;;;;-142.75;55.15;76477.78;5069439;28;20428;-75
2021/06/25 09:50:02;;;;;;;;;;;;;;;-142.75;55.26;76495.50;5055787;28;19923;-74
2021/06/25 09:52:44;;;;;;;;;;;;;;;-142.75;55.51;76495.50;5036645;28;19917;-75
2021/06/25 09:55:10;;;;;;;;;;;;;;;-142.75;55.89;76477.78;5061568;28;19917;-75
2021/06/25 09:57:55;;;;;;;;;;;;;;;-142.75;56.31;76467.94;5063511;28;19917;-76
2021/06/25 10:01:21;;;;;;;;;;;;;;;-142.75;55.84;76489.59;5052809;28;19951;-75
2021/06/25 10:03:12;;;;;;;;;;;;;;;-142.75;55.66;76528.97;5057038;28;20290;-76
2021/06/25 10:05:37;;;;;;;;;;;;;;;-142.75;56.22;76525.03;5036453;28;19917;-75
2021/06/25 10:08:03;;;;;;;;;;;;;;;-142.75;57.04;76534.84;5052878;28;20329;-75
2021/06/25 10:10:28;;;;;;;;;;;;;;;-142.75;56.81;76538.78;5088019;22;19967;-74
2021/06/25 10:12:54;;;;;;;;;;;;;;;-142.75;56.07;76548.63;5070591;28;20302;-76
2021/06/25 10:15:19;;;;;;;;;;;;;;;-142.75;56.30;76558.47;5051079;28;19925;-75
2021/06/25 10:17:44;;;;;;;;;;;;;;;-142.75;56.54;76570.28;5051495;28;19924;-77
2021/06/25 10:20:11;;;;;;;;;;;;;;;-142.75;56.34;76558.47;5064759;28;19922;-77
2021/06/25 10:22:37;;;;;;;;;;;;;;;-142.75;57.33;76562.41;5072582;28;20385;-76
2021/06/25 10:25:06;;;;;;;;;;;;;;;-142.75;57.61;76572.25;5063835;28;19917;-76
2021/06/25 10:27:32;;;;;;;;;;;;;;;-142.75;57.70;76586.03;5068354;28;20009;-76
2021/06/25 10:29:58;;;;;;;;;;;;;;;-142.75;57.36;76593.91;5070466;28;19967;-77
2021/06/25 10:32:24;;;;;;;;;;;;;;;-142.75;57.26;76601.78;5051155;28;19986;-76
2021/06/25 10:34:49;;;;;;;;;;;;;;;-142.75;57.35;76609.66;5052330;28;19917;-76
2021/06/25 10:37:19;;;;;;;;;;;;;;;-142.75;57.99;76609.66;5067106;28;19921;-76
2021/06/25 10:39:44;;;;;;;;;;;;;;;-142.75;57.73;76645.09;5070955;28;19962;-76
2021/06/25 10:42:10;;;;;;;;;;;;;;;-142.75;58.81;76666.75;5059510;28;20019;-75
2021/06/25 10:44:40;;;;;;;;;;;;;;;-142.75;59.17;76656.91;5051878;28;20386;-75
2021/06/25 10:47:13;;;;;;;;;;;;;;;-142.75;59.09;76672.66;5055470;28;19987;-76
2021/06/25 10:49:57;;;;;;;;;;;;;;;-142.75;58.61;76680.53;5070781;28;19917;-74
2021/06/25 10:52:22;;;;;;;;;;;;;;;-142.75;59.23;76670.69;5051619;28;19924;-74
2021/06/25 10:55:01;;;;;;;;;;;;;;;-142.75;59.32;76672.66;5051766;28;19917;-75
2021/06/25 10:57:27;;;;;;;;;;;;;;;-142.75;59.54;76676.59;5049899;28;19924;-76
2021/06/25 10:59:52;;;;;;;;;;;;;;;-142.75;60.53;76700.22;5054768;28;19917;-75
2021/06/25 11:02:17;;;;;;;;;;;;;;;-142.75;61.35;76702.19;5060976;28;20011;-74
2021/06/25 11:04:44;;;;;;;;;;;;;;;-142.75;60.43;76717.94;5053788;28;19916;-76
2021/06/25 11:07:14;;;;;;;;;;;;;;;-142.75;60.28;76708.09;5068212;28;19955;-75
2021/06/25 11:09:57;;;;;;;;;;;;;;;-142.75;60.19;76690.38;5063355;28;19924;-76
2021/06/25 11:12:22;;;;;;;;;;;;;;;-142.75;60.48;76688.41;5050487;28;19987;-76
2021/06/25 11:14:53;;;;;;;;;;;;;;;-142.75;59.37;76696.28;5056338;28;19917;-76
2021/06/25 11:17:38;;;;;;;;;;;;;;;-142.75;60.03;76694.31;5051664;28;20003;-76
2021/06/25 11:20:15;;;;;;;;;;;;;;;-142.75;60.02;76704.16;5050469;28;19916;-76
2021/06/25 11:22:40;;;;;;;;;;;;;;;-142.75;60.46;76694.31;5050284;28;20040;-76
2021/06/25 11:25:11;;;;;;;;;;;;;;;-142.75;60.56;76712.03;5056185;28;20458;-76
2021/06/25 11:27:55;;;;;;;;;;;;;;;-142.75;61.21;76696.28;5054143;28;20421;-77
2021/06/25 11:30:39;;;;;;;;;;;;;;;-142.75;60.79;76698.25;5051090;28;19917;-76
2021/06/25 11:33:23;;;;;;;;;;;;;;;-142.75;61.11;76678.56;5051402;28;19920;-76
2021/06/25 11:35:48;;;;;;;;;;;;;;;-142.75;61.11;76645.09;5050549;28;20396;-75
2021/06/25 11:38:13;;;;;;;;;;;;;;;-142.75;60.65;76633.28;5050001;28;20007;-75
2021/06/25 11:40:45;;;;;;;;;;;;;;;-142.75;59.33;76621.47;5070782;28;19916;-74
2021/06/25 11:43:12;;;;;;;;;;;;;;;-142.75;59.36;76613.59;5066574;28;19964;-76
2021/06/25 11:45:37;;;;;;;;;;;;;;;-142.75;59.18;76609.66;5051317;28;19944;-76
2021/06/25 11:48:02;;;;;;;;;;;;;;;-142.75;59.48;76589.97;5051168;28;19956;-76
2021/06/25 11:50:28;;;;;;;;;;;;;;;-142.75;59.42;76574.22;5050614;28;20332;-76
2021/06/25 11:52:53;;;;;;;;;;;;;;;-142.75;57.69;76564.38;5051077;28;20015;-75
2021/06/25 11:55:18;;;;;;;;;;;;;;;-142.75;57.17;76562.41;5049835;28;19924;-75
2021/06/25 11:57:43;;;;;;;;;;;;;;;-142.75;57.62;76548.63;5065130;28;19927;-76
2021/06/25 12:00:12;;;;;;;;;;;;;;;-142.75;56.88;76554.53;5070525;28;20385;-76
2021/06/25 12:02:43;;;;;;;;;;;;;;;-142.75;57.92;76546.66;5070964;28;19928;-76
2021/06/25 12:05:10;;;;;;;;;;;;;;;-142.75;57.64;76550.59;5056621;28;19916;-76
2021/06/25 12:07:35;;;;;;;;;;;;;;;-142.75;57.98;76544.69;5049908;28;19971;-76
2021/06/25 12:10:00;;;;;;;;;;;;;;;-142.75;57.20;76538.78;5066232;28;20001;-76
2021/06/25 12:12:32;;;;;;;;;;;;;;;-142.75;57.32;76564.38;5071630;28;19923;-76
2021/06/25 12:14:59;;;;;;;;;;;;;;;-142.75;58.63;76523.06;5071153;28;19916;-76
2021/06/25 12:17:25;;;;;;;;;;;;;;;-142.75;57.62;76487.63;5059814;28;19921;-76
2021/06/25 12:19:58;;;;;;;;;;;;;;;-142.75;56.63;76469.91;5066453;28;19920;-76
2021/06/25 12:22:23;;;;;;;;;;;;;;;-142.75;55.85;76471.88;5070408;28;19931;-74
2021/06/25 12:24:53;;;;;;;;;;;;;;;-142.75;56.30;76481.72;5069878;28;19917;-77
2021/06/25 12:27:18;;;;;;;;;;;;;;;-142.75;56.20;76511.25;5068922;28;19926;-76
2021/06/25 12:29:45;;;;;;;;;;;;;;;-142.75;56.84;76540.75;5051311;28;19999;-76
2021/06/25 12:32:16;;;;;;;;;;;;;;;-142.75;57.28;76554.53;5049689;28;19924;-75
2021/06/25 12:34:41;;;;;;;;;;;;;;;-142.75;58.13;76588.00;5050334;28;19923;-76
2021/06/25 12:37:06;;;;;;;;;;;;;;;-142.75;58.51;76599.81;5053054;28;19917;-76
2021/06/25 12:39:33;;;;;;;;;;;;;;;-142.75;58.26;76609.66;5054983;28;19920;-75